Hlavní strana
METAR-TAF:

METAR-TAF

Letiště :

Toliara, Madagaskar

zeměpisná šířka: 23-23S, zeměpisná délka: 043-44E, výška: 8 m

METAR: chybějící

Čas: 15:42 (12:42 UTC)

Předpověď počasí

Zpráva byla vytvořena před 1 hodinou a 42 minutami, v 11:00 UTC
Předpověď platná od 28 v 12 UTC do 29 v 12 UTC
Západní vítr 14 kt
Viditelnost 10 km a více
Skoro jasno ve výšce 2300 ft
Změna
od 28 v 12 UTC do 28 v 14 UTC
Skoro jasno ve výšce 2000 ft, Cumulonimbus.
Změna
od 28 v 16 UTC do 28 v 18 UTC
vítr z různých směrů 3 kt
Skoro jasno ve výšce 2000 ft
Změna
od 29 v 07 UTC do 29 v 09 UTC
Západojihozápadní vítr 13 kt

TAF: FMST 281100Z 2812/2912 26014KT 9999 FEW023 BECMG 2812/2814 FEW020CB BECMG 2816/2818 VRB03KT FEW020 BECMG 2907/2909 24013KT

Stav a předpovědi počasí z více než 4 000 letišť (zprávy METAR a TAF).

Červené a žluté tečky na mapě představují dostupné meteorologické stanice.

Když kurzor umístíte na tečku, zobrazí se název stanice.

Pak kliknutím zobrazíte stav a předpověď počasí.

Chcete-li změnit mapu, kliknutím na zelené tlačítko se znaménkem +mapu přiblížíte, kliknutím na zelené tlačítko se znaménkem – mapu oddálíte a kliknutím na zelené šipky přejdete na sousední mapy.


METAR-TAF: